Time;durP1;ratioP1;P1;durP2;ratioP2;P2;SDS_P1;SDS_P2;PMS_P1;PMS_P2;Temp;Humidity;BMP_temperature;BMP_pressure;BME280_temperature;BME280_humidity;BME280_pressure;Samples;Min_cycle;Max_cycle;Signal;HPM_P1;HPM_P2
2021/11/02 00:01:42;;;;;;;0.10;0.10;;;;;;;;;;5930035;24;20344;-90
2021/11/02 00:04:08;;;;;;;0.10;0.10;;;;;;;;;;5930679;24;20017;-90
2021/11/02 00:06:35;;;;;;;0.10;0.10;;;;;;;;;;5930147;24;20016;-90
2021/11/02 00:09:02;;;;;;;0.10;0.10;;;;;;;;;;5930304;24;20319;-90
2021/11/02 00:11:28;;;;;;;0.10;0.10;;;;;;;;;;5953375;24;20324;-90
2021/11/02 00:13:55;;;;;;;0.10;0.10;;;;;;;;;;5930380;24;20065;-90
2021/11/02 00:16:23;;;;;;;0.10;0.10;;;;;;;;;;5929748;24;20459;-90
2021/11/02 00:19:00;;;;;;;0.10;0.10;;;;;;;;;;5930020;24;20056;-90
2021/11/02 00:21:28;;;;;;;0.10;0.10;;;;;;;;;;5953251;24;20040;-90
2021/11/02 00:23:57;;;;;;;0.10;0.10;;;;;;;;;;5953089;24;20013;-90
2021/11/02 00:26:23;;;;;;;0.10;0.10;;;;;;;;;;5953119;24;20439;-90
2021/11/02 00:28:50;;;;;;;0.10;0.10;;;;;;;;;;5953030;24;20207;-90
2021/11/02 00:31:16;;;;;;;0.10;0.10;;;;;;;;;;5929975;24;20017;-90
2021/11/02 00:33:42;;;;;;;0.10;0.10;;;;;;;;;;5929767;24;20048;-90
2021/11/02 00:36:08;;;;;;;0.30;0.30;;;;;;;;;;5953227;24;20087;-90
2021/11/02 00:38:34;;;;;;;0.10;0.10;;;;;;;;;;5952976;24;20366;-90
2021/11/02 00:41:00;;;;;;;0.10;0.10;;;;;;;;;;5953059;24;20040;-89
2021/11/02 00:43:26;;;;;;;0.10;0.10;;;;;;;;;;5929916;24;20440;-90
2021/11/02 00:45:52;;;;;;;0.10;0.10;;;;;;;;;;5929781;24;20021;-90
2021/11/02 00:48:26;;;;;;;0.10;0.10;;;;;;;;;;5952932;24;20013;-89
2021/11/02 00:50:52;;;;;;;0.10;0.10;;;;;;;;;;5925253;24;20017;-90
2021/11/02 00:53:18;;;;;;;0.10;0.10;;;;;;;;;;5948081;24;20474;-90
2021/11/02 00:55:43;;;;;;;0.10;0.10;;;;;;;;;;5948343;24;20017;-89
2021/11/02 00:58:10;;;;;;;0.10;0.10;;;;;;;;;;5947968;24;20055;-90
2021/11/02 01:00:36;;;;;;;0.00;0.00;;;;;;;;;;5948366;24;20021;-89
2021/11/02 01:03:03;;;;;;;0.10;0.10;;;;;;;;;;5924837;24;20029;-90
2021/11/02 01:05:29;;;;;;;0.10;0.10;;;;;;;;;;5948081;24;20024;-90
2021/11/02 01:07:55;;;;;;;0.10;0.10;;;;;;;;;;5925238;24;20013;-89
2021/11/02 01:10:21;;;;;;;0.10;0.10;;;;;;;;;;5947935;24;20324;-90
2021/11/02 01:12:47;;;;;;;0.10;0.10;;;;;;;;;;5947914;24;20092;-89
2021/11/02 01:15:14;;;;;;;0.20;0.20;;;;;;;;;;5947870;24;20050;-89
2021/11/02 01:17:40;;;;;;;0.20;0.20;;;;;;;;;;5924776;24;20073;-89
2021/11/02 01:20:06;;;;;;;0.10;0.10;;;;;;;;;;5924896;24;20032;-90
2021/11/02 01:22:32;;;;;;;0.10;0.10;;;;;;;;;;5947892;24;20120;-90
2021/11/02 01:24:58;;;;;;;0.10;0.10;;;;;;;;;;5948028;24;20099;-89
2021/11/02 01:27:24;;;;;;;0.10;0.10;;;;;;;;;;5947698;24;20017;-89
2021/11/02 01:29:50;;;;;;;0.10;0.10;;;;;;;;;;5947833;24;20092;-89
2021/11/02 01:32:16;;;;;;;0.10;0.10;;;;;;;;;;5924457;24;20096;-89
2021/11/02 01:34:42;;;;;;;0.10;0.10;;;;;;;;;;5924732;24;20017;-89
2021/11/02 01:37:08;;;;;;;0.10;0.10;;;;;;;;;;5948060;24;20093;-89
2021/11/02 01:39:35;;;;;;;0.10;0.10;;;;;;;;;;5924684;24;20460;-88
2021/11/02 01:42:01;;;;;;;0.00;0.00;;;;;;;;;;5924942;24;20036;-89
2021/11/02 01:44:28;;;;;;;0.10;0.10;;;;;;;;;;5924526;24;20048;-90
2021/11/02 01:46:54;;;;;;;0.10;0.10;;;;;;;;;;5947614;24;20232;-89
2021/11/02 01:49:20;;;;;;;0.10;0.10;;;;;;;;;;5924632;24;20023;-89
2021/11/02 01:51:46;;;;;;;0.10;0.10;;;;;;;;;;5947725;24;20025;-89
2021/11/02 01:54:12;;;;;;;0.10;0.10;;;;;;;;;;5924416;24;20017;-89
2021/11/02 01:56:38;;;;;;;0.10;0.10;;;;;;;;;;5947257;24;20442;-89
2021/11/02 01:59:04;;;;;;;0.10;0.10;;;;;;;;;;5947734;24;20028;-89
2021/11/02 02:01:33;;;;;;;0.10;0.10;;;;;;;;;;5924403;24;20494;-89
2021/11/02 02:04:26;;;;;;;0.10;0.10;;;;;;;;;;5947587;24;20456;-89
2021/11/02 02:06:58;;;;;;;0.10;0.10;;;;;;;;;;5914051;24;20013;-88
2021/11/02 02:09:29;;;;;;;0.10;0.10;;;;;;;;;;5924542;24;20017;-89
2021/11/02 02:11:55;;;;;;;0.10;0.10;;;;;;;;;;5924579;24;20028;-89
2021/11/02 02:14:25;;;;;;;0.10;0.10;;;;;;;;;;5947892;24;20127;-90
2021/11/02 02:16:51;;;;;;;0.10;0.10;;;;;;;;;;5924342;24;20082;-89
2021/11/02 02:19:40;;;;;;;0.10;0.10;;;;;;;;;;5947450;24;20028;-90
2021/11/02 02:22:09;;;;;;;0.10;0.10;;;;;;;;;;5947570;24;20017;-89
2021/11/02 02:24:40;;;;;;;0.10;0.10;;;;;;;;;;5947515;24;20056;-89
2021/11/02 02:27:23;;;;;;;0.10;0.10;;;;;;;;;;5924390;24;20017;-89
2021/11/02 02:29:49;;;;;;;0.10;0.10;;;;;;;;;;5924122;24;20145;-90
2021/11/02 02:32:16;;;;;;;0.10;0.10;;;;;;;;;;5924494;24;20434;-89
2021/11/02 02:34:46;;;;;;;0.10;0.10;;;;;;;;;;5947122;24;20066;-89
2021/11/02 02:37:12;;;;;;;0.10;0.10;;;;;;;;;;5947267;24;20017;-89
2021/11/02 02:39:38;;;;;;;0.10;0.10;;;;;;;;;;5947157;24;20021;-89
2021/11/02 02:42:04;;;;;;;0.10;0.10;;;;;;;;;;5947293;24;20017;-89
2021/11/02 02:44:30;;;;;;;0.10;0.10;;;;;;;;;;5923984;24;20312;-89
2021/11/02 02:46:56;;;;;;;0.10;0.10;;;;;;;;;;5947048;24;20033;-89
2021/11/02 02:49:22;;;;;;;0.10;0.10;;;;;;;;;;5924129;24;20017;-89
2021/11/02 02:51:48;;;;;;;0.10;0.10;;;;;;;;;;5947056;24;20073;-89
2021/11/02 02:54:15;;;;;;;0.35;0.35;;;;;;;;;;5924198;24;20096;-89
2021/11/02 02:56:45;;;;;;;0.03;0.03;;;;;;;;;;5948577;24;20380;-88
2021/11/02 02:59:11;;;;;;;0.10;0.10;;;;;;;;;;5925669;24;20020;-89
2021/11/02 03:01:38;;;;;;;0.10;0.10;;;;;;;;;;5948879;24;20017;-89
2021/11/02 03:04:07;;;;;;;0.10;0.10;;;;;;;;;;5949060;24;20049;-89
2021/11/02 03:06:36;;;;;;;0.10;0.10;;;;;;;;;;5926063;24;20088;-89
2021/11/02 03:09:03;;;;;;;0.10;0.10;;;;;;;;;;5925429;24;20419;-89
2021/11/02 03:11:29;;;;;;;0.10;0.10;;;;;;;;;;5925747;24;20258;-89
2021/11/02 03:13:56;;;;;;;0.10;0.10;;;;;;;;;;5926144;24;20029;-89
2021/11/02 03:16:31;;;;;;;0.10;0.10;;;;;;;;;;5925895;24;20052;-89
2021/11/02 03:43:57;;;;;;;0.10;0.10;;;;;;;;;;5926426;24;20427;-90
2021/11/02 03:52:02;;;;;;;0.10;0.10;;;;;;;;;;5953729;24;20023;-90
2021/11/02 03:59:54;;;;;;;0.00;0.00;;;;;;;;;;5953622;24;20021;-90
2021/11/02 04:27:31;;;;;;;0.10;0.10;;;;;;;;;;5953426;24;20032;-89
2021/11/02 04:30:24;;;;;;;0.13;0.13;;;;;;;;;;5930089;24;20013;-90
2021/11/02 05:11:12;;;;;;;0.10;0.10;;;;;;;;;;5952904;24;20471;-90
2021/11/02 05:14:16;;;;;;;0.10;0.10;;;;;;;;;;5929847;24;20060;-90
2021/11/02 05:49:34;;;;;;;0.10;0.10;;;;;;;;;;5952664;24;20024;-90
2021/11/02 05:57:17;;;;;;;0.10;0.10;;;;;;;;;;5952251;24;20096;-89
2021/11/02 05:59:49;;;;;;;0.10;0.10;;;;;;;;;;5929513;24;20021;-89
2021/11/02 06:29:24;;;;;;;0.10;0.10;;;;;;;;;;5952248;24;20020;-90
2021/11/02 06:32:34;;;;;;;0.10;0.10;;;;;;;;;;5953583;24;20118;-89
2021/11/02 06:41:47;;;;;;;0.10;0.10;;;;;;;;;;5954269;24;20031;-90
2021/11/02 06:43:36;;;;;;;0.10;0.10;;;;;;;;;;5931069;24;20044;-91
2021/11/02 06:48:48;;;;;;;0.10;0.10;;;;;;;;;;5954213;24;19987;-90
2021/11/02 06:51:25;;;;;;;0.10;0.10;;;;;;;;;;5948683;24;20032;-91
2021/11/02 06:54:41;;;;;;;0.10;0.10;;;;;;;;;;5924583;24;20060;-90
2021/11/02 07:19:01;;;;;;;0.10;0.10;;;;;;;;;;5946013;24;20096;-92
2021/11/02 07:21:35;;;;;;;0.10;0.10;;;;;;;;;;5948226;24;20100;-90
2021/11/02 07:24:08;;;;;;;0.10;0.10;;;;;;;;;;5947635;24;20013;-89
2021/11/02 08:47:10;;;;;;;0.10;0.10;;;;;;;;;;5929371;24;20055;-91
2021/11/02 08:49:43;;;;;;;0.00;0.00;;;;;;;;;;5929400;24;20062;-91
2021/11/02 08:52:09;;;;;;;0.10;0.10;;;;;;;;;;5927715;24;20459;-91
2021/11/02 08:54:36;;;;;;;0.10;0.10;;;;;;;;;;5929760;24;20017;-92
2021/11/02 08:57:04;;;;;;;0.10;0.10;;;;;;;;;;5930590;24;20021;-92
2021/11/02 08:59:33;;;;;;;0.10;0.10;;;;;;;;;;5930596;24;20344;-91
2021/11/02 09:01:59;;;;;;;0.00;0.00;;;;;;;;;;5930242;24;20017;-93
2021/11/02 09:07:25;;;;;;;0.20;0.20;;;;;;;;;;5921028;24;20032;-93
2021/11/02 09:09:51;;;;;;;0.10;0.10;;;;;;;;;;5935279;24;20016;-93
2021/11/02 09:12:18;;;;;;;0.10;0.10;;;;;;;;;;5931545;24;20072;-93
2021/11/02 09:14:48;;;;;;;0.20;0.20;;;;;;;;;;5932553;24;20017;-94
2021/11/02 09:17:17;;;;;;;0.10;0.10;;;;;;;;;;5937465;24;20098;-96
2021/11/02 09:19:43;;;;;;;0.10;0.10;;;;;;;;;;5931142;24;20076;-95
2021/11/02 09:22:14;;;;;;;0.65;0.43;;;;;;;;;;5954100;24;20100;-95
2021/11/02 09:24:42;;;;;;;0.10;0.10;;;;;;;;;;5931686;24;20016;-95
2021/11/02 09:27:08;;;;;;;0.10;0.10;;;;;;;;;;5931727;24;20016;-92
2021/11/02 09:29:35;;;;;;;0.10;0.10;;;;;;;;;;5930572;24;20012;-95
2021/11/02 09:32:05;;;;;;;0.10;0.10;;;;;;;;;;5930637;24;20017;-93
2021/11/02 09:34:31;;;;;;;0.10;0.10;;;;;;;;;;5930390;24;20110;-95
2021/11/02 09:37:00;;;;;;;0.20;0.20;;;;;;;;;;5930038;24;20021;-95
2021/11/02 09:39:27;;;;;;;0.10;0.10;;;;;;;;;;5930827;24;20017;-95
2021/11/02 09:42:12;;;;;;;0.10;0.10;;;;;;;;;;5929768;24;20023;-93
2021/11/02 09:44:59;;;;;;;0.10;0.10;;;;;;;;;;5931263;24;20149;-94
2021/11/02 09:47:47;;;;;;;0.32;0.32;;;;;;;;;;5929939;24;20020;-94
2021/11/02 09:51:14;;;;;;;0.10;0.10;;;;;;;;;;5930266;24;20021;-92
2021/11/02 09:53:48;;;;;;;0.13;0.13;;;;;;;;;;5927405;24;20440;-91
2021/11/02 09:56:36;;;;;;;0.10;0.10;;;;;;;;;;5948010;24;20101;-91
2021/11/02 09:59:29;;;;;;;0.20;0.20;;;;;;;;;;5948427;24;20030;-91
2021/11/02 10:02:03;;;;;;;0.10;0.10;;;;;;;;;;5928789;24;20021;-92
2021/11/02 10:04:49;;;;;;;0.10;0.10;;;;;;;;;;5965272;24;20013;-92
2021/11/02 10:07:17;;;;;;;0.20;0.20;;;;;;;;;;5943759;24;20049;-91
2021/11/02 10:09:57;;;;;;;0.10;0.10;;;;;;;;;;5976976;24;20013;-92
2021/11/02 10:12:28;;;;;;;0.10;0.10;;;;;;;;;;5969961;24;20073;-92
2021/11/02 10:15:09;;;;;;;0.10;0.10;;;;;;;;;;5951590;24;20124;-90
2021/11/02 10:17:54;;;;;;;0.10;0.10;;;;;;;;;;5928080;24;20032;-91
2021/11/02 10:20:30;;;;;;;0.10;0.10;;;;;;;;;;5951415;24;20073;-91
2021/11/02 10:23:15;;;;;;;0.10;0.10;;;;;;;;;;5950877;24;20017;-90
2021/11/02 10:25:50;;;;;;;0.10;0.10;;;;;;;;;;5950636;24;20099;-90
2021/11/02 10:28:35;;;;;;;0.40;0.40;;;;;;;;;;5950709;24;20044;-89
2021/11/02 10:31:11;;;;;;;0.10;0.10;;;;;;;;;;5951001;24;20023;-90
2021/11/02 10:33:38;;;;;;;0.10;0.10;;;;;;;;;;5950841;24;20046;-90
2021/11/02 10:36:18;;;;;;;0.10;0.10;;;;;;;;;;5950667;24;20129;-90
2021/11/02 10:38:49;;;;;;;0.10;0.10;;;;;;;;;;5927551;24;20016;-89
2021/11/02 10:41:20;;;;;;;0.10;0.10;;;;;;;;;;5950590;24;20021;-90
2021/11/02 10:43:50;;;;;;;0.10;0.10;;;;;;;;;;5927541;24;20021;-90
2021/11/02 10:46:16;;;;;;;0.10;0.10;;;;;;;;;;5950723;24;20419;-89
2021/11/02 10:48:42;;;;;;;0.10;0.10;;;;;;;;;;5950763;24;20028;-89
2021/11/02 10:51:09;;;;;;;0.10;0.10;;;;;;;;;;5950575;24;20308;-90
2021/11/02 10:53:38;;;;;;;0.20;0.20;;;;;;;;;;5950706;24;20021;-90
2021/11/02 10:56:33;;;;;;;0.30;0.30;;;;;;;;;;5927869;24;20485;-90
2021/11/02 10:59:00;;;;;;;0.15;0.15;;;;;;;;;;5879126;24;20369;-89
2021/11/02 11:01:26;;;;;;;0.10;0.10;;;;;;;;;;5927355;24;20097;-90
2021/11/02 11:03:52;;;;;;;0.10;0.10;;;;;;;;;;5950602;24;20013;-89
2021/11/02 11:06:18;;;;;;;0.10;0.10;;;;;;;;;;5927873;24;20396;-92
2021/11/02 11:08:45;;;;;;;0.10;0.10;;;;;;;;;;5927811;24;20121;-89
2021/11/02 11:11:15;;;;;;;0.10;0.10;;;;;;;;;;5928072;24;20021;-88
2021/11/02 11:13:42;;;;;;;0.10;0.10;;;;;;;;;;5927206;24;20025;-88
2021/11/02 11:16:09;;;;;;;0.20;0.20;;;;;;;;;;5926478;24;20021;-89
2021/11/02 11:19:15;;;;;;;0.40;0.40;;;;;;;;;;5949320;24;20017;-90
2021/11/02 11:21:41;;;;;;;0.10;0.10;;;;;;;;;;5870211;24;20439;-90
2021/11/02 11:24:19;;;;;;;0.10;0.10;;;;;;;;;;5848172;24;20018;-89
2021/11/02 11:26:49;;;;;;;0.10;0.10;;;;;;;;;;5890244;24;20045;-90
2021/11/02 11:29:19;;;;;;;0.10;0.10;;;;;;;;;;5926107;24;20033;-89
2021/11/02 11:31:46;;;;;;;0.25;0.20;;;;;;;;;;5949213;24;20461;-91
2021/11/02 11:34:11;;;;;;;0.20;0.13;;;;;;;;;;5926503;24;20017;-89
2021/11/02 11:36:37;;;;;;;0.10;0.10;;;;;;;;;;5948686;24;20112;-89
2021/11/02 11:39:05;;;;;;;0.30;0.30;;;;;;;;;;5948990;24;20021;-90
2021/11/02 11:41:33;;;;;;;0.10;0.10;;;;;;;;;;5948741;24;20025;-89
2021/11/02 11:44:00;;;;;;;0.10;0.10;;;;;;;;;;5948637;24;20024;-89
2021/11/02 11:46:27;;;;;;;0.13;0.13;;;;;;;;;;5949003;24;20332;-90
2021/11/02 11:48:54;;;;;;;0.10;0.10;;;;;;;;;;5949179;24;20024;-89
2021/11/02 11:51:21;;;;;;;0.17;0.17;;;;;;;;;;5930175;24;20025;-89
2021/11/02 11:53:49;;;;;;;0.20;0.20;;;;;;;;;;5930472;24;20500;-89
2021/11/02 11:56:16;;;;;;;0.20;0.20;;;;;;;;;;5953064;24;20069;-90
2021/11/02 11:58:48;;;;;;;0.17;0.17;;;;;;;;;;5953466;24;20385;-89
2021/11/02 12:01:16;;;;;;;0.10;0.10;;;;;;;;;;5953121;24;20016;-90
2021/11/02 12:03:55;;;;;;;0.10;0.10;;;;;;;;;;5930104;24;20028;-89
2021/11/02 12:06:25;;;;;;;0.10;0.10;;;;;;;;;;5953202;24;20016;-90
2021/11/02 12:08:51;;;;;;;0.10;0.10;;;;;;;;;;5953243;24;20027;-89
2021/11/02 12:11:17;;;;;;;0.10;0.10;;;;;;;;;;5953332;24;20017;-90
2021/11/02 12:13:43;;;;;;;0.10;0.10;;;;;;;;;;5929961;24;20048;-92
2021/11/02 12:16:28;;;;;;;0.10;0.10;;;;;;;;;;5931252;24;20068;-92
2021/11/02 12:19:02;;;;;;;0.10;0.10;;;;;;;;;;5930077;24;20017;-96
2021/11/02 12:21:28;;;;;;;0.10;0.10;;;;;;;;;;5929866;24;20462;-91
2021/11/02 12:23:55;;;;;;;0.15;0.15;;;;;;;;;;5953669;24;20017;-91
2021/11/02 12:26:22;;;;;;;0.10;0.10;;;;;;;;;;5929974;24;20017;-91
2021/11/02 12:28:48;;;;;;;0.13;0.13;;;;;;;;;;5929574;24;20012;-91
2021/11/02 12:31:15;;;;;;;0.10;0.10;;;;;;;;;;5930064;24;20016;-91
2021/11/02 12:33:45;;;;;;;0.10;0.10;;;;;;;;;;5930655;24;20063;-95
2021/11/02 12:36:12;;;;;;;0.10;0.10;;;;;;;;;;5953680;24;20039;-93
2021/11/02 12:38:45;;;;;;;0.10;0.10;;;;;;;;;;5930858;24;20027;-92
2021/11/02 12:41:25;;;;;;;0.20;0.20;;;;;;;;;;5953083;24;20017;-90
2021/11/02 12:44:05;;;;;;;0.10;0.10;;;;;;;;;;5952960;24;20025;-91
2021/11/02 12:46:32;;;;;;;0.10;0.10;;;;;;;;;;5953236;24;20031;-92
2021/11/02 12:48:59;;;;;;;0.10;0.10;;;;;;;;;;5930297;24;20017;-92
2021/11/02 12:51:27;;;;;;;0.10;0.10;;;;;;;;;;5930149;24;20017;-91
2021/11/02 12:53:57;;;;;;;0.10;0.10;;;;;;;;;;5929926;24;20013;-90
2021/11/02 12:56:23;;;;;;;0.10;0.10;;;;;;;;;;5930295;24;20017;-93
2021/11/02 12:58:54;;;;;;;0.10;0.10;;;;;;;;;;5930415;24;20347;-92
2021/11/02 13:01:40;;;;;;;0.10;0.10;;;;;;;;;;5930531;24;20062;-93
2021/11/02 13:04:09;;;;;;;0.20;0.20;;;;;;;;;;5930212;24;20027;-93
2021/11/02 13:06:39;;;;;;;0.10;0.10;;;;;;;;;;5930416;24;20052;-92
2021/11/02 13:09:05;;;;;;;0.10;0.10;;;;;;;;;;5953510;24;20017;-93
2021/11/02 13:11:31;;;;;;;0.10;0.10;;;;;;;;;;5930431;24;20024;-93
2021/11/02 13:13:59;;;;;;;0.10;0.10;;;;;;;;;;5930478;24;20023;-93
2021/11/02 13:16:27;;;;;;;0.10;0.10;;;;;;;;;;5929905;24;20423;-91
2021/11/02 13:18:53;;;;;;;0.10;0.10;;;;;;;;;;5952940;24;20020;-91
2021/11/02 13:21:29;;;;;;;0.10;0.10;;;;;;;;;;5929801;24;20008;-91
2021/11/02 13:24:06;;;;;;;0.10;0.10;;;;;;;;;;5930229;24;20017;-90
2021/11/02 13:26:48;;;;;;;;;;;;;;;;;;5928655;24;20020;-91
2021/11/02 13:29:17;;;;;;;0.10;0.10;;;;;;;;;;5952823;24;19921;-91
2021/11/02 13:31:43;;;;;;;0.10;0.10;;;;;;;;;;5930150;24;20013;-89
2021/11/02 13:34:17;;;;;;;0.10;0.10;;;;;;;;;;5929902;24;20024;-91
2021/11/02 13:36:43;;;;;;;0.10;0.10;;;;;;;;;;5930174;24;20023;-91
2021/11/02 13:39:10;;;;;;;0.10;0.10;;;;;;;;;;5929650;24;20051;-90
2021/11/02 13:41:40;;;;;;;0.10;0.10;;;;;;;;;;5929418;24;20023;-90
2021/11/02 13:44:08;;;;;;;0.10;0.10;;;;;;;;;;5929685;24;20044;-91
2021/11/02 13:46:43;;;;;;;0.10;0.10;;;;;;;;;;5929412;24;20013;-91
2021/11/02 13:49:09;;;;;;;0.10;0.10;;;;;;;;;;5928901;24;20470;-93
2021/11/02 13:51:39;;;;;;;0.10;0.10;;;;;;;;;;5954531;24;20028;-92
2021/11/02 13:54:05;;;;;;;0.10;0.10;;;;;;;;;;5953473;24;20468;-92
2021/11/02 13:56:32;;;;;;;0.10;0.10;;;;;;;;;;5930335;24;20055;-94
2021/11/02 13:58:58;;;;;;;0.10;0.10;;;;;;;;;;5952765;24;20486;-93
2021/11/02 14:01:26;;;;;;;0.10;0.10;;;;;;;;;;5930370;24;20100;-92
2021/11/02 14:03:58;;;;;;;0.10;0.10;;;;;;;;;;5953483;24;20027;-94
2021/11/02 14:06:24;;;;;;;0.10;0.10;;;;;;;;;;5930491;24;20015;-93
2021/11/02 14:08:51;;;;;;;0.10;0.10;;;;;;;;;;5951790;24;20235;-93
2021/11/02 14:11:18;;;;;;;0.10;0.10;;;;;;;;;;5953108;24;20088;-93
2021/11/02 14:13:49;;;;;;;0.10;0.10;;;;;;;;;;5929449;24;20028;-93
2021/11/02 14:16:15;;;;;;;0.10;0.10;;;;;;;;;;5929634;24;20027;-92
2021/11/02 14:18:41;;;;;;;0.10;0.10;;;;;;;;;;5953003;24;20028;-92
2021/11/02 14:21:11;;;;;;;0.10;0.10;;;;;;;;;;5929794;24;20179;-93
2021/11/02 14:23:46;;;;;;;0.15;0.15;;;;;;;;;;5929742;24;20101;-92
2021/11/02 14:26:26;;;;;;;0.10;0.10;;;;;;;;;;5929735;24;20032;-92
2021/11/02 14:28:56;;;;;;;0.10;0.10;;;;;;;;;;5952805;24;20016;-92
2021/11/02 14:31:37;;;;;;;0.10;0.10;;;;;;;;;;5953172;24;20020;-93
2021/11/02 14:34:04;;;;;;;0.10;0.10;;;;;;;;;;5953111;24;20289;-93
2021/11/02 14:36:38;;;;;;;0.10;0.10;;;;;;;;;;5930449;24;20024;-92
2021/11/02 14:39:05;;;;;;;0.10;0.10;;;;;;;;;;5952734;24;20439;-92
2021/11/02 14:41:32;;;;;;;0.10;0.10;;;;;;;;;;5952799;24;20024;-96
2021/11/02 14:44:17;;;;;;;0.10;0.10;;;;;;;;;;5953108;24;20017;-95
2021/11/02 14:46:44;;;;;;;0.10;0.10;;;;;;;;;;5952955;24;20034;-95
2021/11/02 14:49:10;;;;;;;0.10;0.10;;;;;;;;;;5929851;24;20091;-94
2021/11/02 14:51:36;;;;;;;0.10;0.10;;;;;;;;;;5932411;24;20025;-95
2021/11/02 14:54:30;;;;;;;0.10;0.10;;;;;;;;;;5932434;24;20068;-95
2021/11/02 14:57:34;;;;;;;0.10;0.10;;;;;;;;;;5956437;24;20094;-95
2021/11/02 15:00:02;;;;;;;0.10;0.10;;;;;;;;;;5888539;24;20130;-96
2021/11/02 15:02:43;;;;;;;0.10;0.10;;;;;;;;;;5874765;24;20364;-93
2021/11/02 15:05:30;;;;;;;0.10;0.10;;;;;;;;;;5913533;23;20049;-92
2021/11/02 15:07:56;;;;;;;0.10;0.10;;;;;;;;;;5966610;24;20028;-91
2021/11/02 15:10:22;;;;;;;0.10;0.10;;;;;;;;;;5933464;23;20009;-92
2021/11/02 15:12:49;;;;;;;0.10;0.10;;;;;;;;;;5932283;24;20076;-93
2021/11/02 15:15:15;;;;;;;0.10;0.10;;;;;;;;;;5909424;24;20019;-92
2021/11/02 15:17:41;;;;;;;0.10;0.10;;;;;;;;;;5909179;24;20346;-93
2021/11/02 15:20:07;;;;;;;0.10;0.10;;;;;;;;;;5909489;24;20028;-91
2021/11/02 15:22:33;;;;;;;0.10;0.10;;;;;;;;;;5908353;24;20021;-92
2021/11/02 15:25:00;;;;;;;0.10;0.10;;;;;;;;;;5909260;24;20017;-92
2021/11/02 15:27:32;;;;;;;0.10;0.10;;;;;;;;;;5931354;24;20345;-91
2021/11/02 15:30:06;;;;;;;0.10;0.10;;;;;;;;;;5908808;24;20016;-92
2021/11/02 15:32:36;;;;;;;0.10;0.10;;;;;;;;;;5908844;24;20541;-92
2021/11/02 15:35:02;;;;;;;0.10;0.10;;;;;;;;;;5908526;24;20152;-92
2021/11/02 15:37:31;;;;;;;0.10;0.10;;;;;;;;;;5908892;24;20020;-91
2021/11/02 15:40:09;;;;;;;0.10;0.10;;;;;;;;;;5931277;24;20021;-91
2021/11/02 15:42:35;;;;;;;0.10;0.10;;;;;;;;;;5931835;24;20073;-92
2021/11/02 15:45:10;;;;;;;0.10;0.10;;;;;;;;;;5931242;24;20368;-92
2021/11/02 15:47:43;;;;;;;0.10;0.10;;;;;;;;;;5908453;24;20048;-93
2021/11/02 15:50:10;;;;;;;0.10;0.10;;;;;;;;;;5931771;24;20017;-92
2021/11/02 15:52:37;;;;;;;0.10;0.10;;;;;;;;;;5907729;24;20023;-91
2021/11/02 15:55:14;;;;;;;0.10;0.10;;;;;;;;;;5931115;24;20031;-91
2021/11/02 15:57:47;;;;;;;0.10;0.10;;;;;;;;;;5907677;24;20017;-91
2021/11/02 16:00:14;;;;;;;0.13;0.13;;;;;;;;;;5908028;24;20020;-90
2021/11/02 16:02:41;;;;;;;0.10;0.10;;;;;;;;;;5931259;24;20027;-92
2021/11/02 16:05:13;;;;;;;0.10;0.10;;;;;;;;;;5909234;24;20096;-94
2021/11/02 16:07:42;;;;;;;0.10;0.10;;;;;;;;;;5935663;24;20447;-91
2021/11/02 16:10:08;;;;;;;0.10;0.10;;;;;;;;;;5908034;24;20020;-91
2021/11/02 16:12:36;;;;;;;0.10;0.10;;;;;;;;;;5908391;24;20021;-90
2021/11/02 16:15:09;;;;;;;0.10;0.10;;;;;;;;;;5930728;24;20045;-93
2021/11/02 16:18:01;;;;;;;0.10;0.10;;;;;;;;;;5931381;24;20488;-95
2021/11/02 16:20:40;;;;;;;0.10;0.10;;;;;;;;;;5907662;24;20017;-94
2021/11/02 16:23:16;;;;;;;0.10;0.10;;;;;;;;;;5933776;24;20013;-93
2021/11/02 16:25:44;;;;;;;0.10;0.10;;;;;;;;;;5930505;24;20091;-93
2021/11/02 16:28:19;;;;;;;0.10;0.10;;;;;;;;;;5907632;24;20389;-92
2021/11/02 16:30:56;;;;;;;0.10;0.10;;;;;;;;;;5930664;24;20024;-90
2021/11/02 16:33:33;;;;;;;0.10;0.10;;;;;;;;;;5907451;24;20096;-93
2021/11/02 16:35:59;;;;;;;0.10;0.10;;;;;;;;;;5907840;24;20021;-92
2021/11/02 16:38:26;;;;;;;0.10;0.10;;;;;;;;;;5907488;24;20020;-93
2021/11/02 16:41:37;;;;;;;0.10;0.10;;;;;;;;;;5907559;24;20068;-93
2021/11/02 16:44:09;;;;;;;0.10;0.10;;;;;;;;;;5907636;24;20021;-91
2021/11/02 16:46:43;;;;;;;0.10;0.10;;;;;;;;;;5930301;24;20024;-92
2021/11/02 16:49:14;;;;;;;0.10;0.10;;;;;;;;;;5907395;24;20336;-91
2021/11/02 16:51:59;;;;;;;0.10;0.10;;;;;;;;;;5929713;24;20095;-91
2021/11/02 16:54:35;;;;;;;0.10;0.10;;;;;;;;;;5931495;24;20013;-96
2021/11/02 16:57:07;;;;;;;0.10;0.10;;;;;;;;;;5951593;24;20016;-92
2021/11/02 17:00:03;;;;;;;0.10;0.10;;;;;;;;;;5930792;24;20024;-93
2021/11/02 17:02:30;;;;;;;0.10;0.10;;;;;;;;;;5906703;24;20017;-93
2021/11/02 17:05:15;;;;;;;0.10;0.10;;;;;;;;;;5931481;23;20074;-92
2021/11/02 17:07:51;;;;;;;0.10;0.10;;;;;;;;;;5929887;24;20021;-91
2021/11/02 17:10:23;;;;;;;0.10;0.10;;;;;;;;;;5929816;24;20069;-90
2021/11/02 17:12:54;;;;;;;0.10;0.10;;;;;;;;;;5952816;24;20020;-90
2021/11/02 17:15:20;;;;;;;0.10;0.10;;;;;;;;;;5929371;24;20016;-91
2021/11/02 17:17:48;;;;;;;0.10;0.10;;;;;;;;;;5929911;24;20027;-90
2021/11/02 17:20:17;;;;;;;0.20;0.20;;;;;;;;;;5906713;24;20086;-90
2021/11/02 17:22:47;;;;;;;0.10;0.10;;;;;;;;;;5907148;24;20021;-91
2021/11/02 17:25:17;;;;;;;0.10;0.10;;;;;;;;;;5953170;24;20597;-90
2021/11/02 17:27:45;;;;;;;0.05;0.05;;;;;;;;;;5907336;24;20023;-92
2021/11/02 17:30:17;;;;;;;0.10;0.10;;;;;;;;;;5907858;24;20028;-92
2021/11/02 17:32:43;;;;;;;0.10;0.10;;;;;;;;;;5907631;24;20078;-93
2021/11/02 17:35:09;;;;;;;0.10;0.10;;;;;;;;;;5907509;24;20354;-91
2021/11/02 17:37:35;;;;;;;0.10;0.10;;;;;;;;;;5929490;24;20027;-89
2021/11/02 17:40:01;;;;;;;0.10;0.10;;;;;;;;;;5906579;24;20017;-91
2021/11/02 17:42:29;;;;;;;0.10;0.10;;;;;;;;;;5906886;24;20099;-92
2021/11/02 17:44:55;;;;;;;0.10;0.10;;;;;;;;;;5906944;24;20044;-91
2021/11/02 17:47:21;;;;;;;0.10;0.10;;;;;;;;;;5904806;24;20368;-90
2021/11/02 17:49:49;;;;;;;0.10;0.10;;;;;;;;;;5929109;24;20013;-90
2021/11/02 17:52:15;;;;;;;0.10;0.10;;;;;;;;;;5929032;24;20466;-89
2021/11/02 17:54:41;;;;;;;0.10;0.10;;;;;;;;;;5906367;24;20039;-90
2021/11/02 17:57:10;;;;;;;0.10;0.10;;;;;;;;;;5929155;24;20020;-90
2021/11/02 17:59:38;;;;;;;0.10;0.10;;;;;;;;;;5906558;24;20021;-90
2021/11/02 18:02:04;;;;;;;0.10;0.10;;;;;;;;;;5906808;24;20123;-90
2021/11/02 18:04:31;;;;;;;0.10;0.10;;;;;;;;;;5906675;24;20016;-90
2021/11/02 18:06:59;;;;;;;0.10;0.10;;;;;;;;;;5907007;24;20088;-89
2021/11/02 18:09:26;;;;;;;0.10;0.10;;;;;;;;;;5906509;24;20021;-90
2021/11/02 18:11:52;;;;;;;0.10;0.10;;;;;;;;;;5929030;24;20443;-91
2021/11/02 18:14:18;;;;;;;0.10;0.10;;;;;;;;;;5906539;24;20347;-92
2021/11/02 18:16:44;;;;;;;0.10;0.10;;;;;;;;;;5906713;24;20032;-91
2021/11/02 18:19:11;;;;;;;0.10;0.10;;;;;;;;;;5907128;24;20016;-92
2021/11/02 18:21:37;;;;;;;0.10;0.10;;;;;;;;;;5929351;24;20100;-91
2021/11/02 18:24:07;;;;;;;0.10;0.10;;;;;;;;;;5906683;24;20059;-92
2021/11/02 18:26:36;;;;;;;0.10;0.10;;;;;;;;;;5930957;24;20016;-90
2021/11/02 18:29:13;;;;;;;0.10;0.10;;;;;;;;;;5931707;24;20013;-92
2021/11/02 18:31:40;;;;;;;0.10;0.10;;;;;;;;;;5930367;24;20423;-92
2021/11/02 18:34:06;;;;;;;0.10;0.10;;;;;;;;;;5908735;24;20016;-91
2021/11/02 18:36:32;;;;;;;0.10;0.10;;;;;;;;;;5908606;24;20017;-91
2021/11/02 18:38:58;;;;;;;0.10;0.10;;;;;;;;;;5908926;24;20017;-93
2021/11/02 18:41:27;;;;;;;0.20;0.20;;;;;;;;;;5908576;24;20036;-91
2021/11/02 18:43:54;;;;;;;0.10;0.10;;;;;;;;;;5908582;24;20017;-91
2021/11/02 18:46:21;;;;;;;0.10;0.10;;;;;;;;;;5908703;24;20440;-91
2021/11/02 18:48:47;;;;;;;0.10;0.10;;;;;;;;;;5908743;24;20470;-92
2021/11/02 18:51:14;;;;;;;0.10;0.10;;;;;;;;;;5908510;24;20073;-93
2021/11/02 18:53:40;;;;;;;0.10;0.10;;;;;;;;;;5931264;24;20466;-92
2021/11/02 18:56:06;;;;;;;0.10;0.10;;;;;;;;;;5908189;24;20020;-91
2021/11/02 18:58:33;;;;;;;0.10;0.10;;;;;;;;;;5932240;24;20020;-95
2021/11/02 19:00:59;;;;;;;0.10;0.10;;;;;;;;;;5931757;24;20027;-92
2021/11/02 19:03:35;;;;;;;0.10;0.10;;;;;;;;;;5907936;24;20017;-92
2021/11/02 19:06:01;;;;;;;0.10;0.10;;;;;;;;;;5930380;24;20093;-90
2021/11/02 19:08:29;;;;;;;0.00;0.00;;;;;;;;;;5906997;24;20016;-89
2021/11/02 19:11:17;;;;;;;0.10;0.10;;;;;;;;;;5907404;24;20083;-90
2021/11/02 19:13:46;;;;;;;0.10;0.10;;;;;;;;;;5930636;24;20023;-91
2021/11/02 19:16:13;;;;;;;0.10;0.10;;;;;;;;;;5915459;24;20048;-90
2021/11/02 19:18:42;;;;;;;0.10;0.10;;;;;;;;;;5953632;24;20095;-90
2021/11/02 19:21:08;;;;;;;0.10;0.10;;;;;;;;;;5953432;24;20064;-90
2021/11/02 19:23:34;;;;;;;0.10;0.10;;;;;;;;;;5953262;24;20017;-90
2021/11/02 19:26:04;;;;;;;0.10;0.10;;;;;;;;;;5976276;23;20048;-88
2021/11/02 19:28:31;;;;;;;0.10;0.10;;;;;;;;;;5976355;24;20053;-89
2021/11/02 19:30:57;;;;;;;0.10;0.10;;;;;;;;;;5953019;24;20121;-89
2021/11/02 19:33:23;;;;;;;0.10;0.10;;;;;;;;;;5951923;24;20734;-89
2021/11/02 19:35:49;;;;;;;0.10;0.10;;;;;;;;;;5952536;24;20028;-89
2021/11/02 19:38:15;;;;;;;0.10;0.10;;;;;;;;;;5952545;24;20021;-89
2021/11/02 19:40:42;;;;;;;0.10;0.10;;;;;;;;;;5976159;23;20016;-89
2021/11/02 19:43:08;;;;;;;0.10;0.10;;;;;;;;;;5952759;24;20108;-90